Time;durP1;ratioP1;P1;durP2;ratioP2;P2;SDS_P1;SDS_P2;PMS_P1;PMS_P2;Temp;Humidity;BMP_temperature;BMP_pressure;BME280_temperature;BME280_humidity;BME280_pressure;Samples;Min_cycle;Max_cycle;Signal;HPM_P1;HPM_P2
2022/08/30 00:01:01;;;;;;;4.68;1.30;;;;;;;;;;4951515;28;20067;-76
2022/08/30 00:01:56;;;;;;;4.00;1.42;;;;;;;;;;4951373;28;20031;-76
2022/08/30 00:04:22;;;;;;;5.22;1.92;;;;;;;;;;4974999;23;20054;-75
2022/08/30 00:06:48;;;;;;;3.67;1.50;;;;;;;;;;4956690;29;20027;-75
2022/08/30 00:09:14;;;;;;;4.45;1.40;;;;;;;;;;4954333;29;20042;-76
2022/08/30 00:11:40;;;;;;;6.43;1.38;;;;;;;;;;4951911;29;20042;-76
2022/08/30 00:14:06;;;;;;;2.83;1.23;;;;;;;;;;4951406;28;20033;-76
2022/08/30 00:16:32;;;;;;;3.70;1.40;;;;;;;;;;4951286;28;20024;-75
2022/08/30 00:18:58;;;;;;;4.35;1.40;;;;;;;;;;4950138;29;20113;-74
2022/08/30 00:21:25;;;;;;;3.85;1.30;;;;;;;;;;4951377;28;20459;-75
2022/08/30 00:23:52;;;;;;;3.45;1.40;;;;;;;;;;4951649;28;20030;-76
2022/08/30 00:26:18;;;;;;;5.18;1.58;;;;;;;;;;4951344;28;20024;-76
2022/08/30 00:28:44;;;;;;;3.55;1.35;;;;;;;;;;4952786;28;20039;-76
2022/08/30 00:31:11;;;;;;;2.42;1.20;;;;;;;;;;4954870;29;20545;-76
2022/08/30 00:33:37;;;;;;;4.75;1.55;;;;;;;;;;4954658;28;20543;-76
2022/08/30 00:36:03;;;;;;;6.40;1.30;;;;;;;;;;4954539;28;20031;-75
2022/08/30 00:38:29;;;;;;;6.03;1.30;;;;;;;;;;4954724;28;20388;-75
2022/08/30 00:40:55;;;;;;;4.20;1.17;;;;;;;;;;4954462;29;20034;-75
2022/08/30 00:43:23;;;;;;;4.50;1.60;;;;;;;;;;4954874;28;20031;-75
2022/08/30 00:45:49;;;;;;;8.13;2.00;;;;;;;;;;4954471;29;20043;-75
2022/08/30 00:48:16;;;;;;;11.15;3.70;;;;;;;;;;4954538;28;20035;-75
2022/08/30 00:50:43;;;;;;;23.75;8.52;;;;;;;;;;4952886;28;20188;-75
2022/08/30 00:53:12;;;;;;;29.92;11.23;;;;;;;;;;4954405;28;20055;-75
2022/08/30 00:55:39;;;;;;;23.80;8.55;;;;;;;;;;4954675;28;20476;-75
2022/08/30 00:58:08;;;;;;;15.93;5.60;;;;;;;;;;4954847;29;20355;-74
2022/08/30 01:00:34;;;;;;;20.02;6.03;;;;;;;;;;4969689;29;20028;-75
2022/08/30 01:03:00;;;;;;;7.88;2.58;;;;;;;;;;4966197;28;20121;-74
2022/08/30 01:05:26;;;;;;;5.43;1.80;;;;;;;;;;4954535;28;20169;-76
2022/08/30 01:07:51;;;;;;;6.28;1.55;;;;;;;;;;4954535;29;20038;-75
2022/08/30 01:10:18;;;;;;;5.40;1.40;;;;;;;;;;4954458;29;20512;-75
2022/08/30 01:12:44;;;;;;;4.63;1.27;;;;;;;;;;4954633;29;20496;-76
2022/08/30 01:15:13;;;;;;;3.35;1.35;;;;;;;;;;4954744;28;20387;-75
2022/08/30 01:17:40;;;;;;;5.75;1.45;;;;;;;;;;4954152;29;20167;-76
2022/08/30 01:20:10;;;;;;;5.00;1.45;;;;;;;;;;4954354;29;20034;-74
2022/08/30 01:22:48;;;;;;;4.15;1.20;;;;;;;;;;4954332;28;20472;-76
2022/08/30 01:25:22;;;;;;;6.20;1.20;;;;;;;;;;4954259;28;20032;-76
2022/08/30 01:27:51;;;;;;;7.80;1.60;;;;;;;;;;4954327;28;20091;-75
2022/08/30 01:30:17;;;;;;;2.33;1.20;;;;;;;;;;4954474;29;20039;-76
2022/08/30 01:32:46;;;;;;;4.47;1.40;;;;;;;;;;4954372;28;20028;-76
2022/08/30 01:35:14;;;;;;;3.92;1.50;;;;;;;;;;4953949;28;20047;-75
2022/08/30 01:37:40;;;;;;;3.63;1.15;;;;;;;;;;4952785;29;20054;-75
2022/08/30 01:40:07;;;;;;;4.28;1.33;;;;;;;;;;4954194;28;20035;-77
2022/08/30 01:42:33;;;;;;;5.13;1.23;;;;;;;;;;4954129;28;20097;-76
2022/08/30 01:44:59;;;;;;;7.32;1.73;;;;;;;;;;4954108;28;20038;-81
2022/08/30 01:47:26;;;;;;;4.05;1.30;;;;;;;;;;4953987;28;20027;-75
2022/08/30 01:49:52;;;;;;;3.25;1.40;;;;;;;;;;4954663;28;20031;-75
2022/08/30 01:52:20;;;;;;;3.00;1.40;;;;;;;;;;4957250;28;20439;-76
2022/08/30 01:54:46;;;;;;;4.18;1.45;;;;;;;;;;4955966;28;20483;-77
2022/08/30 01:57:14;;;;;;;5.10;1.40;;;;;;;;;;4952426;28;20425;-75
2022/08/30 01:59:42;;;;;;;6.65;2.00;;;;;;;;;;4953455;28;20030;-75
2022/08/30 02:02:09;;;;;;;6.63;1.50;;;;;;;;;;4951954;29;20396;-75
2022/08/30 02:04:36;;;;;;;4.00;1.48;;;;;;;;;;4952989;28;20046;-75
2022/08/30 02:07:02;;;;;;;3.42;1.48;;;;;;;;;;4953058;28;20477;-76
2022/08/30 02:09:28;;;;;;;8.32;1.40;;;;;;;;;;4953640;28;20085;-74
2022/08/30 02:11:54;;;;;;;4.38;1.80;;;;;;;;;;4953467;28;20039;-75
2022/08/30 02:14:20;;;;;;;4.43;1.40;;;;;;;;;;4953565;28;20024;-74
2022/08/30 02:16:47;;;;;;;4.53;1.52;;;;;;;;;;4953552;28;20023;-76
2022/08/30 02:19:13;;;;;;;7.18;1.48;;;;;;;;;;4956331;28;20027;-75
2022/08/30 02:21:39;;;;;;;7.90;1.60;;;;;;;;;;4956352;29;20027;-75
2022/08/30 02:24:05;;;;;;;3.50;1.55;;;;;;;;;;4960974;28;20096;-75
2022/08/30 02:26:31;;;;;;;4.43;1.33;;;;;;;;;;4956149;28;20078;-75
2022/08/30 02:28:58;;;;;;;9.38;2.28;;;;;;;;;;4959834;28;20088;-74
2022/08/30 02:31:25;;;;;;;6.78;1.80;;;;;;;;;;4964625;28;20028;-74
2022/08/30 02:33:51;;;;;;;4.95;1.92;;;;;;;;;;4961486;28;20570;-76
2022/08/30 02:36:19;;;;;;;6.78;1.80;;;;;;;;;;4959661;29;20023;-73
2022/08/30 02:38:45;;;;;;;3.20;1.38;;;;;;;;;;4956985;28;20019;-75
2022/08/30 02:41:11;;;;;;;3.03;1.58;;;;;;;;;;4955555;28;20502;-74
2022/08/30 02:43:37;;;;;;;4.15;1.50;;;;;;;;;;4953504;28;20071;-76
2022/08/30 02:46:04;;;;;;;3.15;1.40;;;;;;;;;;4952786;28;20027;-76
2022/08/30 02:48:30;;;;;;;3.53;1.60;;;;;;;;;;4952405;28;20039;-75
2022/08/30 02:50:56;;;;;;;4.18;1.58;;;;;;;;;;4951996;28;20030;-76
2022/08/30 02:53:22;;;;;;;6.07;1.70;;;;;;;;;;4952556;28;20468;-75
2022/08/30 02:55:49;;;;;;;3.30;1.58;;;;;;;;;;4952999;28;20030;-74
2022/08/30 02:58:15;;;;;;;5.28;1.65;;;;;;;;;;4952435;28;20130;-75
2022/08/30 03:00:41;;;;;;;3.30;1.67;;;;;;;;;;4952491;28;20031;-75
2022/08/30 03:03:07;;;;;;;3.80;2.10;;;;;;;;;;4951013;28;20023;-75
2022/08/30 03:05:33;;;;;;;4.53;1.63;;;;;;;;;;4954361;28;20058;-75
2022/08/30 03:08:00;;;;;;;5.82;1.40;;;;;;;;;;4955022;29;20035;-74
2022/08/30 03:10:26;;;;;;;4.85;2.08;;;;;;;;;;4956021;28;20028;-75
2022/08/30 03:12:53;;;;;;;8.40;1.80;;;;;;;;;;4952729;28;20027;-75
2022/08/30 03:15:19;;;;;;;3.58;1.52;;;;;;;;;;4953722;28;20026;-74
2022/08/30 03:17:45;;;;;;;6.40;1.63;;;;;;;;;;4954577;29;20102;-75
2022/08/30 03:20:11;;;;;;;4.45;1.45;;;;;;;;;;4954148;28;20049;-75
2022/08/30 03:22:37;;;;;;;3.25;1.30;;;;;;;;;;4952303;28;20035;-75
2022/08/30 03:25:04;;;;;;;4.60;1.50;;;;;;;;;;4952217;28;20031;-76
2022/08/30 03:27:30;;;;;;;7.38;1.77;;;;;;;;;;4952431;28;20031;-76
2022/08/30 03:29:56;;;;;;;4.18;1.90;;;;;;;;;;4952302;28;20602;-75
2022/08/30 03:32:22;;;;;;;5.93;1.58;;;;;;;;;;4950937;29;20050;-76
2022/08/30 03:34:49;;;;;;;4.32;1.95;;;;;;;;;;4953041;28;20117;-75
2022/08/30 03:37:15;;;;;;;6.35;2.00;;;;;;;;;;4961856;28;20026;-75
2022/08/30 03:39:41;;;;;;;4.70;1.60;;;;;;;;;;4960935;28;20121;-76
2022/08/30 03:42:07;;;;;;;6.13;1.58;;;;;;;;;;4951713;28;20110;-77
2022/08/30 03:44:32;;;;;;;4.68;1.60;;;;;;;;;;4951885;28;20024;-75
2022/08/30 03:46:59;;;;;;;4.53;1.83;;;;;;;;;;4951627;28;20056;-76
2022/08/30 03:49:25;;;;;;;3.83;1.60;;;;;;;;;;4952020;28;20034;-75
2022/08/30 03:51:51;;;;;;;3.70;1.73;;;;;;;;;;4950775;29;20392;-76
2022/08/30 03:54:17;;;;;;;6.95;2.05;;;;;;;;;;4953298;28;20516;-77
2022/08/30 03:56:43;;;;;;;9.13;2.33;;;;;;;;;;4951864;28;20107;-75
2022/08/30 03:59:09;;;;;;;5.10;1.58;;;;;;;;;;4952410;28;20034;-74
2022/08/30 04:01:35;;;;;;;3.80;1.55;;;;;;;;;;4952362;28;20468;-75
2022/08/30 04:04:01;;;;;;;3.80;1.85;;;;;;;;;;4960776;28;20084;-78
2022/08/30 04:06:27;;;;;;;5.97;1.60;;;;;;;;;;4951609;28;20027;-75
2022/08/30 04:08:53;;;;;;;6.07;1.98;;;;;;;;;;4952013;28;20027;-76
2022/08/30 04:11:20;;;;;;;3.53;1.52;;;;;;;;;;4957464;28;20029;-76
2022/08/30 04:13:48;;;;;;;2.50;1.73;;;;;;;;;;4954304;28;20030;-75
2022/08/30 04:16:14;;;;;;;6.45;1.70;;;;;;;;;;4952682;28;20058;-75
2022/08/30 04:18:40;;;;;;;4.07;1.65;;;;;;;;;;4953840;28;20031;-76
2022/08/30 04:21:06;;;;;;;4.75;1.80;;;;;;;;;;4953611;28;20037;-75
2022/08/30 04:23:32;;;;;;;3.78;1.77;;;;;;;;;;4952959;28;20027;-76
2022/08/30 04:25:58;;;;;;;6.43;1.85;;;;;;;;;;4951821;28;20031;-75
2022/08/30 04:28:24;;;;;;;3.70;1.65;;;;;;;;;;4951836;28;20046;-76
2022/08/30 04:30:50;;;;;;;7.10;1.90;;;;;;;;;;4952978;28;20072;-77
2022/08/30 04:33:16;;;;;;;4.30;1.52;;;;;;;;;;4954304;28;20426;-75
2022/08/30 04:35:44;;;;;;;6.00;1.75;;;;;;;;;;4954976;28;20027;-77
2022/08/30 04:38:10;;;;;;;5.50;1.80;;;;;;;;;;4955166;28;20027;-77
2022/08/30 04:40:37;;;;;;;7.28;3.28;;;;;;;;;;4954651;28;20027;-79
2022/08/30 04:43:03;;;;;;;5.20;2.50;;;;;;;;;;4951144;28;20046;-76
2022/08/30 04:45:29;;;;;;;8.13;3.47;;;;;;;;;;4953537;28;20050;-78
2022/08/30 04:47:55;;;;;;;5.20;2.92;;;;;;;;;;4953239;29;20059;-76
2022/08/30 04:50:21;;;;;;;4.35;1.90;;;;;;;;;;4963393;29;20020;-78
2022/08/30 04:52:47;;;;;;;5.15;2.00;;;;;;;;;;4953689;29;20076;-77
2022/08/30 04:55:14;;;;;;;3.85;2.00;;;;;;;;;;4954167;28;20032;-76
2022/08/30 04:57:40;;;;;;;4.35;2.20;;;;;;;;;;4951014;28;20038;-74
2022/08/30 05:00:08;;;;;;;4.05;2.00;;;;;;;;;;4952401;28;20031;-74
2022/08/30 05:02:34;;;;;;;2.78;1.75;;;;;;;;;;4953172;28;20219;-76
2022/08/30 05:08:03;;;;;;;3.53;1.90;;;;;;;;;;4991489;28;20500;-77
2022/08/30 05:10:29;;;;;;;3.03;1.70;;;;;;;;;;4962112;28;20437;-76
2022/08/30 05:12:55;;;;;;;8.98;2.97;;;;;;;;;;4952127;29;20039;-76
2022/08/30 05:15:21;;;;;;;5.70;2.25;;;;;;;;;;4957983;28;20023;-77
2022/08/30 05:17:47;;;;;;;6.95;2.00;;;;;;;;;;4961840;28;20035;-77
2022/08/30 05:20:13;;;;;;;8.65;2.10;;;;;;;;;;4961364;29;20423;-75
2022/08/30 05:22:40;;;;;;;3.22;1.75;;;;;;;;;;4957730;29;20368;-75
2022/08/30 05:25:06;;;;;;;6.80;2.05;;;;;;;;;;4958411;28;20027;-76
2022/08/30 05:27:32;;;;;;;4.72;1.45;;;;;;;;;;4960031;28;20028;-75
2022/08/30 05:29:59;;;;;;;4.25;1.80;;;;;;;;;;4960425;28;20033;-76
2022/08/30 05:32:25;;;;;;;3.55;1.60;;;;;;;;;;4962205;28;20451;-76
2022/08/30 05:34:51;;;;;;;3.17;1.67;;;;;;;;;;4961563;28;20058;-75
2022/08/30 05:37:16;;;;;;;4.82;2.00;;;;;;;;;;4957854;29;20495;-77
2022/08/30 05:39:43;;;;;;;3.83;2.10;;;;;;;;;;4960017;28;20035;-76
2022/08/30 05:42:09;;;;;;;4.43;2.42;;;;;;;;;;4959639;28;20049;-77
2022/08/30 05:44:35;;;;;;;4.53;2.15;;;;;;;;;;4960424;28;20099;-76
2022/08/30 05:47:01;;;;;;;4.78;2.30;;;;;;;;;;4962442;28;20031;-76
2022/08/30 05:49:27;;;;;;;7.18;2.22;;;;;;;;;;4975794;28;20027;-76
2022/08/30 05:51:53;;;;;;;5.38;2.40;;;;;;;;;;4977665;28;20058;-75
2022/08/30 05:54:18;;;;;;;6.32;2.35;;;;;;;;;;4977176;28;20191;-75
2022/08/30 05:56:45;;;;;;;4.65;1.75;;;;;;;;;;4977517;28;20020;-73
2022/08/30 05:59:11;;;;;;;4.13;1.83;;;;;;;;;;4975770;29;20063;-76
2022/08/30 06:01:39;;;;;;;6.15;2.30;;;;;;;;;;4977191;28;20066;-74
2022/08/30 06:04:05;;;;;;;5.20;2.30;;;;;;;;;;4998426;23;20035;-74
2022/08/30 06:06:32;;;;;;;4.40;2.30;;;;;;;;;;4991657;28;20027;-75
2022/08/30 06:09:00;;;;;;;4.38;2.10;;;;;;;;;;4971459;28;20088;-77
2022/08/30 06:11:27;;;;;;;4.50;2.53;;;;;;;;;;4980052;28;20036;-78
2022/08/30 06:13:54;;;;;;;6.47;2.40;;;;;;;;;;4963418;28;20023;-77
2022/08/30 06:16:20;;;;;;;3.80;2.22;;;;;;;;;;4964325;28;20484;-77
2022/08/30 06:18:47;;;;;;;4.78;2.00;;;;;;;;;;4959032;28;20036;-77
2022/08/30 06:21:27;;;;;;;3.92;2.20;;;;;;;;;;4955740;29;20114;-76
2022/08/30 06:23:53;;;;;;;5.97;2.65;;;;;;;;;;4960464;28;20047;-77
2022/08/30 06:26:19;;;;;;;4.47;2.40;;;;;;;;;;4957892;28;20031;-76
2022/08/30 06:28:45;;;;;;;7.85;3.25;;;;;;;;;;4957619;28;20460;-77
2022/08/30 06:31:12;;;;;;;21.58;12.75;;;;;;;;;;4957114;28;20541;-78
2022/08/30 06:33:40;;;;;;;8.38;3.20;;;;;;;;;;4956516;28;20031;-76
2022/08/30 06:36:07;;;;;;;10.15;3.78;;;;;;;;;;4954856;28;20019;-76
2022/08/30 06:38:33;;;;;;;7.22;2.38;;;;;;;;;;4955979;28;20028;-77
2022/08/30 06:40:59;;;;;;;4.95;2.80;;;;;;;;;;4959181;28;20083;-78
2022/08/30 06:43:25;;;;;;;7.05;2.65;;;;;;;;;;4966103;28;20035;-77
2022/08/30 06:45:51;;;;;;;4.95;2.92;;;;;;;;;;4965783;28;20032;-77
2022/08/30 06:48:17;;;;;;;11.20;2.67;;;;;;;;;;4965646;28;20031;-76
2022/08/30 06:50:43;;;;;;;5.90;3.35;;;;;;;;;;4965093;28;20031;-77
2022/08/30 06:53:09;;;;;;;5.20;2.67;;;;;;;;;;4964304;28;20027;-76
2022/08/30 06:55:36;;;;;;;3.45;1.70;;;;;;;;;;4962089;28;20264;-77
2022/08/30 06:58:02;;;;;;;6.82;2.67;;;;;;;;;;4966469;28;20043;-77
2022/08/30 07:00:29;;;;;;;5.68;3.00;;;;;;;;;;4957444;28;20069;-76
2022/08/30 07:02:55;;;;;;;7.38;3.08;;;;;;;;;;4960047;28;20030;-77
2022/08/30 07:05:22;;;;;;;5.75;3.00;;;;;;;;;;4959255;28;20373;-76
2022/08/30 07:07:48;;;;;;;13.70;3.78;;;;;;;;;;4960358;28;20043;-77
2022/08/30 07:10:15;;;;;;;8.27;3.40;;;;;;;;;;4958432;28;20059;-76
2022/08/30 07:12:41;;;;;;;9.30;4.10;;;;;;;;;;4964737;28;20031;-75
2022/08/30 07:15:08;;;;;;;10.30;2.40;;;;;;;;;;4960553;28;20036;-76
2022/08/30 07:20:20;;;;;;;12.85;3.78;;;;;;;;;;4958142;29;20108;-77
2022/08/30 07:22:46;;;;;;;5.47;2.33;;;;;;;;;;4960055;28;20031;-76
2022/08/30 07:25:13;;;;;;;6.05;2.42;;;;;;;;;;4963700;28;20028;-75
2022/08/30 07:27:39;;;;;;;15.65;8.23;;;;;;;;;;4963332;28;20038;-78
2022/08/30 07:30:06;;;;;;;10.27;4.68;;;;;;;;;;4960048;28;20101;-78
2022/08/30 07:32:32;;;;;;;4.72;2.45;;;;;;;;;;4961331;28;20032;-76
2022/08/30 07:34:58;;;;;;;6.35;2.85;;;;;;;;;;4965905;28;20027;-77
2022/08/30 07:37:24;;;;;;;5.60;1.50;;;;;;;;;;4966955;28;20039;-76
2022/08/30 07:39:50;;;;;;;10.18;3.17;;;;;;;;;;4958283;28;20027;-77
2022/08/30 07:42:16;;;;;;;5.13;2.13;;;;;;;;;;4959184;28;20444;-77
2022/08/30 07:44:42;;;;;;;7.32;2.35;;;;;;;;;;4957602;28;20027;-77
2022/08/30 07:47:08;;;;;;;33.40;19.45;;;;;;;;;;4955806;28;20030;-78
2022/08/30 07:49:34;;;;;;;8.00;2.55;;;;;;;;;;4954539;28;20114;-77
2022/08/30 07:52:00;;;;;;;6.95;2.00;;;;;;;;;;4955015;28;20031;-77
2022/08/30 07:54:26;;;;;;;7.55;3.47;;;;;;;;;;4954747;28;20027;-76
2022/08/30 07:56:54;;;;;;;6.68;3.22;;;;;;;;;;4954857;28;20038;-77
2022/08/30 07:59:20;;;;;;;4.72;2.67;;;;;;;;;;4955617;28;20034;-76
2022/08/30 08:01:46;;;;;;;3.50;2.08;;;;;;;;;;4957055;28;20039;-76
2022/08/30 08:04:12;;;;;;;4.45;2.67;;;;;;;;;;4958882;28;20054;-75
2022/08/30 08:06:39;;;;;;;3.22;1.70;;;;;;;;;;4969761;28;20087;-77
2022/08/30 08:09:05;;;;;;;2.63;1.40;;;;;;;;;;4965555;28;20027;-76
2022/08/30 08:11:32;;;;;;;5.95;1.30;;;;;;;;;;4958972;28;20023;-76
2022/08/30 08:13:58;;;;;;;5.18;1.83;;;;;;;;;;4960656;28;20019;-76
2022/08/30 08:16:25;;;;;;;6.10;1.23;;;;;;;;;;4956397;28;20114;-78
2022/08/30 08:18:52;;;;;;;4.65;1.70;;;;;;;;;;4954626;28;20077;-77
2022/08/30 08:21:18;;;;;;;5.78;1.40;;;;;;;;;;4953734;28;20047;-77
2022/08/30 08:23:44;;;;;;;3.50;1.33;;;;;;;;;;4954513;28;20030;-76
2022/08/30 08:26:10;;;;;;;7.07;1.42;;;;;;;;;;4955652;28;20530;-76
2022/08/30 08:28:36;;;;;;;4.15;1.30;;;;;;;;;;4955100;28;20035;-76
2022/08/30 08:31:02;;;;;;;3.80;1.13;;;;;;;;;;4958207;28;20388;-77
2022/08/30 08:33:28;;;;;;;3.25;1.38;;;;;;;;;;4959300;28;20028;-77
2022/08/30 08:35:54;;;;;;;6.10;1.80;;;;;;;;;;4957453;28;20036;-77
2022/08/30 08:38:20;;;;;;;3.58;1.10;;;;;;;;;;4957763;28;20023;-77
2022/08/30 08:41:01;;;;;;;5.28;1.38;;;;;;;;;;4954560;28;20032;-77
2022/08/30 08:43:28;;;;;;;4.63;1.73;;;;;;;;;;4955422;28;20032;-77
2022/08/30 08:45:57;;;;;;;4.38;1.40;;;;;;;;;;4953475;28;20508;-76
2022/08/30 08:48:38;;;;;;;2.38;1.38;;;;;;;;;;4952539;28;20028;-76
2022/08/30 08:53:55;;;;;;;4.05;1.10;;;;;;;;;;4957432;28;20082;-76
2022/08/30 08:56:22;;;;;;;4.55;1.20;;;;;;;;;;4958154;28;20225;-76
2022/08/30 08:58:52;;;;;;;3.97;1.00;;;;;;;;;;4957747;28;20023;-78
2022/08/30 09:01:21;;;;;;;5.70;1.33;;;;;;;;;;4958971;28;20055;-75
2022/08/30 09:03:47;;;;;;;7.35;1.52;;;;;;;;;;4959841;28;20063;-77
2022/08/30 09:06:19;;;;;;;4.80;1.23;;;;;;;;;;4959671;28;20440;-77
2022/08/30 09:08:45;;;;;;;6.72;1.23;;;;;;;;;;4957189;28;20095;-77
2022/08/30 09:11:15;;;;;;;3.70;1.10;;;;;;;;;;4961137;28;20100;-77
2022/08/30 09:13:41;;;;;;;2.28;0.93;;;;;;;;;;4962165;28;20058;-77
2022/08/30 09:16:07;;;;;;;2.47;1.10;;;;;;;;;;4967563;28;20455;-76
2022/08/30 09:18:43;;;;;;;2.25;1.15;;;;;;;;;;4964466;28;20027;-77
2022/08/30 09:21:10;;;;;;;6.57;2.63;;;;;;;;;;4964310;28;20024;-77
2022/08/30 09:23:37;;;;;;;2.35;1.25;;;;;;;;;;4956500;28;20027;-77
2022/08/30 09:26:05;;;;;;;2.10;1.20;;;;;;;;;;4958368;28;20024;-76
2022/08/30 09:28:32;;;;;;;5.68;1.23;;;;;;;;;;4956252;28;20098;-77
2022/08/30 09:31:05;;;;;;;2.92;1.20;;;;;;;;;;4956630;28;20023;-77
2022/08/30 09:33:31;;;;;;;4.05;1.20;;;;;;;;;;4955466;28;20086;-77
2022/08/30 09:36:08;;;;;;;4.15;1.40;;;;;;;;;;4957949;28;20075;-75
2022/08/30 09:38:34;;;;;;;3.00;0.98;;;;;;;;;;4957424;28;20038;-75
2022/08/30 09:41:19;;;;;;;5.28;1.42;;;;;;;;;;4956145;28;20046;-75
2022/08/30 09:43:45;;;;;;;4.50;1.20;;;;;;;;;;4955739;28;20023;-76
2022/08/30 09:46:12;;;;;;;2.55;1.05;;;;;;;;;;4955382;28;20125;-75
2022/08/30 09:48:39;;;;;;;3.47;1.15;;;;;;;;;;4956430;28;20031;-76
2022/08/30 09:51:14;;;;;;;3.03;1.10;;;;;;;;;;4970046;28;20057;-77
2022/08/30 09:53:52;;;;;;;3.58;1.50;;;;;;;;;;4960791;28;20023;-77
2022/08/30 09:56:37;;;;;;;3.05;1.70;;;;;;;;;;4956798;28;20047;-76
2022/08/30 09:59:11;;;;;;;11.30;1.70;;;;;;;;;;4970450;28;20023;-76
2022/08/30 10:01:42;;;;;;;2.78;1.30;;;;;;;;;;4967579;28;20129;-76
2022/08/30 10:04:21;;;;;;;5.78;2.03;;;;;;;;;;4958414;28;20042;-77
2022/08/30 10:06:52;;;;;;;3.63;2.03;;;;;;;;;;4955686;28;20023;-75
2022/08/30 10:09:31;;;;;;;5.25;1.95;;;;;;;;;;4958189;28;20169;-77
2022/08/30 10:11:59;;;;;;;6.00;2.58;;;;;;;;;;4961724;28;20058;-77
2022/08/30 10:14:55;;;;;;;3.92;1.50;;;;;;;;;;4955301;28;20062;-76
2022/08/30 10:17:40;;;;;;;4.00;1.70;;;;;;;;;;4923748;28;20040;-75
2022/08/30 10:20:06;;;;;;;4.15;1.52;;;;;;;;;;4958938;28;20027;-75
2022/08/30 10:22:38;;;;;;;4.40;1.40;;;;;;;;;;4962677;28;20031;-76
2022/08/30 10:25:12;;;;;;;5.65;1.75;;;;;;;;;;4966392;28;20127;-77
2022/08/30 10:27:44;;;;;;;3.33;1.63;;;;;;;;;;4966336;28;20035;-77
2022/08/30 10:30:12;;;;;;;3.78;1.35;;;;;;;;;;4959592;28;20054;-76
2022/08/30 10:32:45;;;;;;;4.05;1.50;;;;;;;;;;4954518;28;20046;-76
2022/08/30 10:35:21;;;;;;;4.88;1.42;;;;;;;;;;4955567;28;20019;-76
2022/08/30 10:37:53;;;;;;;6.15;1.70;;;;;;;;;;4957095;28;20051;-77
2022/08/30 10:43:34;;;;;;;2.97;1.40;;;;;;;;;;4955345;28;20399;-76
2022/08/30 10:46:01;;;;;;;3.25;1.30;;;;;;;;;;4955019;28;20480;-75
2022/08/30 10:48:36;;;;;;;4.18;1.52;;;;;;;;;;4954725;28;20066;-76
2022/08/30 10:51:08;;;;;;;4.35;1.30;;;;;;;;;;4956347;28;20027;-76
2022/08/30 10:53:44;;;;;;;4.30;1.65;;;;;;;;;;4956294;28;20023;-76
2022/08/30 10:56:11;;;;;;;3.95;1.42;;;;;;;;;;4959766;28;20028;-76
2022/08/30 10:58:40;;;;;;;4.25;1.85;;;;;;;;;;4961030;28;20106;-77
2022/08/30 11:01:09;;;;;;;5.10;2.33;;;;;;;;;;4961193;28;20031;-79
2022/08/30 11:03:41;;;;;;;3.40;1.70;;;;;;;;;;4956865;28;20042;-76
2022/08/30 11:06:14;;;;;;;10.70;2.50;;;;;;;;;;4956820;28;20066;-78
2022/08/30 11:08:56;;;;;;;5.82;1.70;;;;;;;;;;4955264;28;20102;-78
2022/08/30 11:11:21;;;;;;;5.22;1.80;;;;;;;;;;4954274;28;20046;-75
2022/08/30 11:13:48;;;;;;;7.32;2.10;;;;;;;;;;4954815;28;20028;-76
2022/08/30 11:16:15;;;;;;;6.32;1.60;;;;;;;;;;4954666;28;20476;-76
2022/08/30 11:18:50;;;;;;;7.05;1.95;;;;;;;;;;4953873;28;20023;-76
2022/08/30 11:21:22;;;;;;;3.25;1.52;;;;;;;;;;4954798;28;20027;-76
2022/08/30 11:24:07;;;;;;;6.90;2.00;;;;;;;;;;4954140;28;20055;-77
2022/08/30 11:26:47;;;;;;;8.93;1.60;;;;;;;;;;4953812;28;20023;-77
2022/08/30 11:29:34;;;;;;;5.60;1.58;;;;;;;;;;4954950;28;20032;-76
2022/08/30 11:32:00;;;;;;;4.95;1.55;;;;;;;;;;4957479;28;20091;-77
2022/08/30 11:34:45;;;;;;;5.53;1.25;;;;;;;;;;4955120;28;20476;-78
2022/08/30 11:37:29;;;;;;;6.60;1.52;;;;;;;;;;4954503;28;20039;-77
2022/08/30 11:39:57;;;;;;;5.03;1.88;;;;;;;;;;4954063;28;20109;-76
2022/08/30 11:42:30;;;;;;;12.25;8.32;;;;;;;;;;4952623;28;20102;-77
2022/08/30 11:45:20;;;;;;;4.13;1.58;;;;;;;;;;4952379;28;20034;-75
2022/08/30 11:47:48;;;;;;;4.05;1.30;;;;;;;;;;4935784;28;20051;-77
2022/08/30 11:50:21;;;;;;;2.83;1.20;;;;;;;;;;4955053;28;20480;-76
2022/08/30 11:53:06;;;;;;;4.30;2.00;;;;;;;;;;4954419;28;20074;-76
2022/08/30 11:55:32;;;;;;;;;;;;;;;;;;4956251;28;20031;-78
2022/08/30 11:58:10;;;;;;;3.58;1.73;;;;;;;;;;4958248;28;19952;-77
2022/08/30 12:00:41;;;;;;;8.20;4.30;;;;;;;;;;4954924;28;20476;-75
2022/08/30 12:03:15;;;;;;;6.40;2.80;;;;;;;;;;4953686;28;20041;-75
2022/08/30 12:05:48;;;;;;;7.57;1.52;;;;;;;;;;4954021;28;20134;-76
2022/08/30 12:08:22;;;;;;;3.78;1.50;;;;;;;;;;4955731;28;20047;-77
2022/08/30 12:10:50;;;;;;;2.08;1.10;;;;;;;;;;4978460;23;20077;-78
2022/08/30 12:13:35;;;;;;;3.97;1.40;;;;;;;;;;4959090;28;20028;-77
2022/08/30 12:16:22;;;;;;;2.88;1.20;;;;;;;;;;4957008;29;20031;-77
2022/08/30 12:18:49;;;;;;;3.28;1.00;;;;;;;;;;4963931;28;20031;-76
2022/08/30 12:21:21;;;;;;;9.07;1.08;;;;;;;;;;4960202;29;20023;-77
2022/08/30 12:23:50;;;;;;;2.03;0.98;;;;;;;;;;4954154;28;20046;-76
2022/08/30 12:26:30;;;;;;;3.30;0.95;;;;;;;;;;4953357;29;20134;-75
2022/08/30 12:29:10;;;;;;;5.07;1.17;;;;;;;;;;4954110;28;20085;-77
2022/08/30 12:31:56;;;;;;;2.97;1.33;;;;;;;;;;4955254;28;20023;-77
2022/08/30 12:34:31;;;;;;;4.60;1.77;;;;;;;;;;4954892;28;20086;-77
2022/08/30 12:36:57;;;;;;;3.05;1.42;;;;;;;;;;4956765;28;20043;-77
2022/08/30 12:39:28;;;;;;;1.63;1.00;;;;;;;;;;4959418;28;20027;-75
2022/08/30 12:41:54;;;;;;;2.42;1.02;;;;;;;;;;4964597;28;20031;-77
2022/08/30 12:44:25;;;;;;;4.63;1.30;;;;;;;;;;4956594;29;20071;-78
2022/08/30 12:46:57;;;;;;;4.47;1.20;;;;;;;;;;4954756;28;20503;-78
2022/08/30 12:49:25;;;;;;;8.70;1.10;;;;;;;;;;4957703;28;20046;-77
2022/08/30 12:51:52;;;;;;;1.98;1.05;;;;;;;;;;4959360;29;20552;-76
2022/08/30 12:54:23;;;;;;;3.47;1.35;;;;;;;;;;4960929;28;20045;-75
2022/08/30 12:56:49;;;;;;;2.45;1.10;;;;;;;;;;4965661;28;20087;-76
2022/08/30 12:59:34;;;;;;;4.78;1.23;;;;;;;;;;4955758;28;20500;-76
2022/08/30 13:02:07;;;;;;;4.15;1.35;;;;;;;;;;4952890;28;20046;-76
2022/08/30 13:04:33;;;;;;;2.38;1.35;;;;;;;;;;4955356;29;20027;-75
2022/08/30 13:07:00;;;;;;;11.50;2.20;;;;;;;;;;4951849;29;20043;-75
2022/08/30 13:09:30;;;;;;;3.50;1.27;;;;;;;;;;4958897;28;20122;-77
2022/08/30 13:11:56;;;;;;;15.18;1.30;;;;;;;;;;5046834;28;20021;-77
2022/08/30 13:14:25;;;;;;;4.82;1.38;;;;;;;;;;5062093;28;20025;-76
2022/08/30 13:17:04;;;;;;;4.18;1.33;;;;;;;;;;5065409;28;20028;-76
2022/08/30 13:19:36;;;;;;;2.42;1.20;;;;;;;;;;5063872;28;20338;-76
2022/08/30 13:22:02;;;;;;;2.10;1.17;;;;;;;;;;5058678;28;20029;-77
2022/08/30 13:24:29;;;;;;;4.90;1.02;;;;;;;;;;5058684;28;20067;-76
2022/08/30 13:26:55;;;;;;;4.53;1.63;;;;;;;;;;5056412;28;20048;-77
2022/08/30 13:29:24;;;;;;;4.43;1.10;;;;;;;;;;5055592;28;20025;-77
2022/08/30 13:31:50;;;;;;;5.28;1.40;;;;;;;;;;5053264;28;20017;-75
2022/08/30 13:34:17;;;;;;;7.25;1.58;;;;;;;;;;5052178;28;20069;-74
2022/08/30 13:36:48;;;;;;;2.35;1.20;;;;;;;;;;5054666;28;20444;-75
2022/08/30 13:39:15;;;;;;;4.85;1.13;;;;;;;;;;5058131;28;20108;-79
2022/08/30 13:41:41;;;;;;;2.92;1.48;;;;;;;;;;5062580;28;20367;-75
2022/08/30 13:44:07;;;;;;;1.60;0.90;;;;;;;;;;5056314;28;20436;-75
2022/08/30 13:46:33;;;;;;;1.35;1.10;;;;;;;;;;5055614;28;20135;-78
2022/08/30 13:49:04;;;;;;;3.17;1.45;;;;;;;;;;5055220;28;20021;-75
2022/08/30 13:51:30;;;;;;;7.38;2.00;;;;;;;;;;5058944;28;20044;-77
2022/08/30 13:53:56;;;;;;;1.50;0.90;;;;;;;;;;5059381;28;20029;-78
2022/08/30 13:56:23;;;;;;;4.38;1.30;;;;;;;;;;5056250;28;20025;-76
2022/08/30 13:58:49;;;;;;;13.13;1.70;;;;;;;;;;5055036;28;20090;-74
2022/08/30 14:01:15;;;;;;;2.67;1.40;;;;;;;;;;5054223;28;20498;-76
2022/08/30 14:03:41;;;;;;;2.85;1.35;;;;;;;;;;5055807;28;20036;-78
2022/08/30 14:06:07;;;;;;;4.82;1.42;;;;;;;;;;5058329;28;20029;-76
2022/08/30 14:08:35;;;;;;;4.90;1.48;;;;;;;;;;5054900;28;20029;-75
2022/08/30 14:11:02;;;;;;;4.63;1.45;;;;;;;;;;5055221;28;20385;-76
2022/08/30 14:13:28;;;;;;;2.53;1.40;;;;;;;;;;5059642;28;20032;-77
2022/08/30 14:15:55;;;;;;;8.35;1.88;;;;;;;;;;5059933;28;20018;-77
2022/08/30 14:18:21;;;;;;;4.15;1.10;;;;;;;;;;5057304;28;20021;-74
2022/08/30 14:20:47;;;;;;;3.92;1.55;;;;;;;;;;5057644;28;20381;-77
2022/08/30 14:23:13;;;;;;;4.63;1.30;;;;;;;;;;5055246;28;20029;-76
2022/08/30 14:25:39;;;;;;;4.78;1.30;;;;;;;;;;5055190;28;20024;-76
2022/08/30 14:28:05;;;;;;;3.22;1.30;;;;;;;;;;5057874;28;20347;-76
2022/08/30 14:30:31;;;;;;;2.45;1.05;;;;;;;;;;5057034;28;20029;-77
2022/08/30 14:32:57;;;;;;;2.30;1.30;;;;;;;;;;5060524;28;20031;-77
2022/08/30 14:35:23;;;;;;;2.90;1.35;;;;;;;;;;5059507;28;20031;-77
2022/08/30 14:37:49;;;;;;;3.40;1.35;;;;;;;;;;5059114;28;20029;-77
2022/08/30 14:40:16;;;;;;;2.67;1.33;;;;;;;;;;5059740;28;20051;-78
2022/08/30 14:42:42;;;;;;;7.70;1.77;;;;;;;;;;5058728;28;20029;-75
2022/08/30 14:45:09;;;;;;;6.43;1.95;;;;;;;;;;5059752;28;20040;-76
2022/08/30 14:47:35;;;;;;;5.75;2.15;;;;;;;;;;5056854;28;20029;-77
2022/08/30 14:50:01;;;;;;;5.05;2.10;;;;;;;;;;5060893;28;20029;-77
2022/08/30 14:52:27;;;;;;;2.35;1.45;;;;;;;;;;5066920;28;20021;-77
2022/08/30 14:54:53;;;;;;;6.55;1.55;;;;;;;;;;5066985;28;20029;-77
2022/08/30 14:57:19;;;;;;;3.78;1.58;;;;;;;;;;5058080;28;20163;-77
2022/08/30 14:59:45;;;;;;;5.38;1.40;;;;;;;;;;5055684;28;20025;-77